NCAR-RAP Real-Time Weather Data

Output produced by METARs form (10 April 2020  07:26 UTC)
found at http://weather.rap.ucar.edu/surface/
 
KSBN 100654Z AUTO 32015G21KT 10SM CLR 02/M03 A2988 RMK AO2 SLP122 T00221033